sensor_id;sensor_type;location;lat;lon;timestamp;temperature;humidity
71672;DHT22;67659;45.554;11.812;2023-09-07T00:01:31;23.60;85.70
71672;DHT22;67659;45.554;11.812;2023-09-07T00:03:57;23.60;85.30
71672;DHT22;67659;45.554;11.812;2023-09-07T00:06:23;23.70;85.70
71672;DHT22;67659;45.554;11.812;2023-09-07T00:08:49;23.60;86.00
71672;DHT22;67659;45.554;11.812;2023-09-07T00:11:14;23.50;86.30
71672;DHT22;67659;45.554;11.812;2023-09-07T00:13:40;23.40;86.80
71672;DHT22;67659;45.554;11.812;2023-09-07T00:16:06;23.40;87.00
71672;DHT22;67659;45.554;11.812;2023-09-07T00:18:33;23.30;88.00
71672;DHT22;67659;45.554;11.812;2023-09-07T00:20:59;23.20;88.30
71672;DHT22;67659;45.554;11.812;2023-09-07T00:23:26;23.10;88.90
71672;DHT22;67659;45.554;11.812;2023-09-07T00:25:52;23.00;89.50
71672;DHT22;67659;45.554;11.812;2023-09-07T00:28:17;22.90;89.80
71672;DHT22;67659;45.554;11.812;2023-09-07T00:30:43;22.80;89.90
71672;DHT22;67659;45.554;11.812;2023-09-07T00:33:09;22.60;90.60
71672;DHT22;67659;45.554;11.812;2023-09-07T00:35:36;22.40;90.00
71672;DHT22;67659;45.554;11.812;2023-09-07T00:38:02;22.30;89.80
71672;DHT22;67659;45.554;11.812;2023-09-07T00:40:29;22.30;90.30
71672;DHT22;67659;45.554;11.812;2023-09-07T00:42:55;22.30;90.40
71672;DHT22;67659;45.554;11.812;2023-09-07T00:45:21;22.10;90.80
71672;DHT22;67659;45.554;11.812;2023-09-07T00:47:47;22.10;93.00
71672;DHT22;67659;45.554;11.812;2023-09-07T00:50:14;22.20;92.90
71672;DHT22;67659;45.554;11.812;2023-09-07T00:52:43;22.10;91.70
71672;DHT22;67659;45.554;11.812;2023-09-07T00:55:10;22.10;93.70
71672;DHT22;67659;45.554;11.812;2023-09-07T00:57:37;22.00;91.30
71672;DHT22;67659;45.554;11.812;2023-09-07T01:00:05;22.00;91.90
71672;DHT22;67659;45.554;11.812;2023-09-07T01:02:33;22.00;91.60
71672;DHT22;67659;45.554;11.812;2023-09-07T01:04:59;22.00;92.30
71672;DHT22;67659;45.554;11.812;2023-09-07T01:07:37;21.80;93.00
71672;DHT22;67659;45.554;11.812;2023-09-07T01:10:04;21.90;93.10
71672;DHT22;67659;45.554;11.812;2023-09-07T01:12:30;21.80;94.20
71672;DHT22;67659;45.554;11.812;2023-09-07T01:15:01;21.70;93.80
71672;DHT22;67659;45.554;11.812;2023-09-07T01:17:30;21.70;95.20
71672;DHT22;67659;45.554;11.812;2023-09-07T01:19:57;21.80;94.00
71672;DHT22;67659;45.554;11.812;2023-09-07T01:22:25;21.80;94.70
71672;DHT22;67659;45.554;11.812;2023-09-07T01:24:52;21.70;93.50
71672;DHT22;67659;45.554;11.812;2023-09-07T01:27:18;21.80;93.80
71672;DHT22;67659;45.554;11.812;2023-09-07T01:29:45;21.80;95.30
71672;DHT22;67659;45.554;11.812;2023-09-07T01:32:10;21.80;93.40
71672;DHT22;67659;45.554;11.812;2023-09-07T01:34:37;21.70;94.50
71672;DHT22;67659;45.554;11.812;2023-09-07T01:37:03;21.70;94.20
71672;DHT22;67659;45.554;11.812;2023-09-07T01:39:29;21.60;93.70
71672;DHT22;67659;45.554;11.812;2023-09-07T01:41:55;21.50;94.50
71672;DHT22;67659;45.554;11.812;2023-09-07T01:44:21;21.50;94.20
71672;DHT22;67659;45.554;11.812;2023-09-07T01:46:46;21.50;95.30
71672;DHT22;67659;45.554;11.812;2023-09-07T01:49:13;21.40;94.90
71672;DHT22;67659;45.554;11.812;2023-09-07T01:51:38;21.40;96.50
71672;DHT22;67659;45.554;11.812;2023-09-07T01:54:04;21.40;97.00
71672;DHT22;67659;45.554;11.812;2023-09-07T01:56:31;21.30;96.40
71672;DHT22;67659;45.554;11.812;2023-09-07T01:58:57;21.20;96.10
71672;DHT22;67659;45.554;11.812;2023-09-07T02:01:27;21.30;97.60
71672;DHT22;67659;45.554;11.812;2023-09-07T02:03:55;21.30;96.30
71672;DHT22;67659;45.554;11.812;2023-09-07T02:06:21;21.30;97.00
71672;DHT22;67659;45.554;11.812;2023-09-07T02:08:47;21.20;96.70
71672;DHT22;67659;45.554;11.812;2023-09-07T02:11:14;21.20;97.40
71672;DHT22;67659;45.554;11.812;2023-09-07T02:13:45;21.20;96.50
71672;DHT22;67659;45.554;11.812;2023-09-07T02:16:11;21.10;97.80
71672;DHT22;67659;45.554;11.812;2023-09-07T02:18:37;21.10;98.40
71672;DHT22;67659;45.554;11.812;2023-09-07T02:21:05;21.10;96.90
71672;DHT22;67659;45.554;11.812;2023-09-07T02:23:32;21.00;96.10
71672;DHT22;67659;45.554;11.812;2023-09-07T02:25:59;21.00;96.50
71672;DHT22;67659;45.554;11.812;2023-09-07T02:28:25;20.90;97.40
71672;DHT22;67659;45.554;11.812;2023-09-07T02:30:52;20.80;99.20
71672;DHT22;67659;45.554;11.812;2023-09-07T02:33:18;20.80;98.30
71672;DHT22;67659;45.554;11.812;2023-09-07T02:35:44;20.70;98.90
71672;DHT22;67659;45.554;11.812;2023-09-07T02:38:10;20.80;99.90
71672;DHT22;67659;45.554;11.812;2023-09-07T02:40:45;20.70;99.90
71672;DHT22;67659;45.554;11.812;2023-09-07T02:43:11;20.70;99.90
71672;DHT22;67659;45.554;11.812;2023-09-07T02:45:38;20.80;99.90
71672;DHT22;67659;45.554;11.812;2023-09-07T02:48:04;20.70;99.90
71672;DHT22;67659;45.554;11.812;2023-09-07T02:50:32;20.70;99.90
71672;DHT22;67659;45.554;11.812;2023-09-07T02:52:59;20.80;99.90
71672;DHT22;67659;45.554;11.812;2023-09-07T02:55:26;20.70;99.90
71672;DHT22;67659;45.554;11.812;2023-09-07T02:57:51;20.70;99.90
71672;DHT22;67659;45.554;11.812;2023-09-07T03:00:17;20.70;99.90
71672;DHT22;67659;45.554;11.812;2023-09-07T03:02:44;20.80;99.90
71672;DHT22;67659;45.554;11.812;2023-09-07T03:05:10;20.70;99.90
71672;DHT22;67659;45.554;11.812;2023-09-07T03:07:36;20.80;99.90
71672;DHT22;67659;45.554;11.812;2023-09-07T03:10:05;20.80;99.90
71672;DHT22;67659;45.554;11.812;2023-09-07T03:12:31;20.80;99.90
71672;DHT22;67659;45.554;11.812;2023-09-07T03:14:57;20.70;99.90
71672;DHT22;67659;45.554;11.812;2023-09-07T03:17:23;20.70;99.90
71672;DHT22;67659;45.554;11.812;2023-09-07T03:19:49;20.70;99.90
71672;DHT22;67659;45.554;11.812;2023-09-07T03:22:15;20.80;98.90
71672;DHT22;67659;45.554;11.812;2023-09-07T03:24:41;20.80;99.20
71672;DHT22;67659;45.554;11.812;2023-09-07T03:27:06;20.70;99.00
71672;DHT22;67659;45.554;11.812;2023-09-07T03:29:32;20.80;98.50
71672;DHT22;67659;45.554;11.812;2023-09-07T03:32:01;20.70;98.10
71672;DHT22;67659;45.554;11.812;2023-09-07T03:34:27;20.70;98.40
71672;DHT22;67659;45.554;11.812;2023-09-07T03:36:53;20.60;99.90
71672;DHT22;67659;45.554;11.812;2023-09-07T03:39:19;20.70;98.30
71672;DHT22;67659;45.554;11.812;2023-09-07T03:41:48;20.50;99.90
71672;DHT22;67659;45.554;11.812;2023-09-07T03:44:14;20.50;98.80
71672;DHT22;67659;45.554;11.812;2023-09-07T03:46:40;20.60;99.80
71672;DHT22;67659;45.554;11.812;2023-09-07T03:49:06;20.50;99.90
71672;DHT22;67659;45.554;11.812;2023-09-07T03:51:32;20.50;99.90
71672;DHT22;67659;45.554;11.812;2023-09-07T03:53:57;20.50;99.90
71672;DHT22;67659;45.554;11.812;2023-09-07T03:56:24;20.40;99.90
71672;DHT22;67659;45.554;11.812;2023-09-07T03:58:50;20.50;99.90
71672;DHT22;67659;45.554;11.812;2023-09-07T04:01:16;20.70;99.90
71672;DHT22;67659;45.554;11.812;2023-09-07T04:03:42;20.60;99.90
71672;DHT22;67659;45.554;11.812;2023-09-07T04:06:08;20.60;99.90
71672;DHT22;67659;45.554;11.812;2023-09-07T04:08:33;20.70;99.10
71672;DHT22;67659;45.554;11.812;2023-09-07T04:11:04;20.60;98.40
71672;DHT22;67659;45.554;11.812;2023-09-07T04:13:30;20.70;99.90
71672;DHT22;67659;45.554;11.812;2023-09-07T04:15:56;20.70;98.30
71672;DHT22;67659;45.554;11.812;2023-09-07T04:18:22;20.60;98.30
71672;DHT22;67659;45.554;11.812;2023-09-07T04:20:48;20.60;99.00
71672;DHT22;67659;45.554;11.812;2023-09-07T04:23:13;20.50;98.20
71672;DHT22;67659;45.554;11.812;2023-09-07T04:25:39;20.50;99.90
71672;DHT22;67659;45.554;11.812;2023-09-07T04:28:06;20.50;99.20
71672;DHT22;67659;45.554;11.812;2023-09-07T04:30:33;20.50;99.90
71672;DHT22;67659;45.554;11.812;2023-09-07T04:33:03;20.50;98.40
71672;DHT22;67659;45.554;11.812;2023-09-07T04:35:29;20.40;98.40
71672;DHT22;67659;45.554;11.812;2023-09-07T04:37:58;20.40;99.20
71672;DHT22;67659;45.554;11.812;2023-09-07T04:40:25;20.20;99.90
71672;DHT22;67659;45.554;11.812;2023-09-07T04:42:53;20.20;99.70
71672;DHT22;67659;45.554;11.812;2023-09-07T04:45:19;20.20;99.90
71672;DHT22;67659;45.554;11.812;2023-09-07T04:47:45;20.30;99.90
71672;DHT22;67659;45.554;11.812;2023-09-07T04:50:11;20.10;99.90
71672;DHT22;67659;45.554;11.812;2023-09-07T04:52:36;20.10;99.90
71672;DHT22;67659;45.554;11.812;2023-09-07T04:55:02;20.20;99.90
71672;DHT22;67659;45.554;11.812;2023-09-07T04:57:30;20.30;99.90
71672;DHT22;67659;45.554;11.812;2023-09-07T04:59:56;20.40;99.90
71672;DHT22;67659;45.554;11.812;2023-09-07T05:02:22;20.40;99.90
71672;DHT22;67659;45.554;11.812;2023-09-07T05:04:48;20.50;99.90
71672;DHT22;67659;45.554;11.812;2023-09-07T05:07:15;20.60;99.90
71672;DHT22;67659;45.554;11.812;2023-09-07T05:09:42;20.80;99.40
71672;DHT22;67659;45.554;11.812;2023-09-07T05:12:07;21.00;99.00
71672;DHT22;67659;45.554;11.812;2023-09-07T05:14:33;21.20;99.90
71672;DHT22;67659;45.554;11.812;2023-09-07T05:16:59;21.30;96.70
71672;DHT22;67659;45.554;11.812;2023-09-07T05:19:25;21.50;96.70
71672;DHT22;67659;45.554;11.812;2023-09-07T05:21:51;21.60;96.70
71672;DHT22;67659;45.554;11.812;2023-09-07T05:24:17;21.60;95.10
71672;DHT22;67659;45.554;11.812;2023-09-07T05:26:43;21.80;96.10
71672;DHT22;67659;45.554;11.812;2023-09-07T05:29:10;22.00;95.20
71672;DHT22;67659;45.554;11.812;2023-09-07T05:31:37;22.20;95.10
71672;DHT22;67659;45.554;11.812;2023-09-07T05:34:02;22.30;95.10
71672;DHT22;67659;45.554;11.812;2023-09-07T05:36:29;22.30;93.10
71672;DHT22;67659;45.554;11.812;2023-09-07T05:38:55;22.50;94.60
71672;DHT22;67659;45.554;11.812;2023-09-07T05:41:21;22.60;95.20
71672;DHT22;67659;45.554;11.812;2023-09-07T05:43:47;22.70;94.40
71672;DHT22;67659;45.554;11.812;2023-09-07T05:46:14;22.80;94.00
71672;DHT22;67659;45.554;11.812;2023-09-07T05:48:40;23.00;93.20
71672;DHT22;67659;45.554;11.812;2023-09-07T05:51:06;23.10;90.70
71672;DHT22;67659;45.554;11.812;2023-09-07T05:53:32;23.30;90.90
71672;DHT22;67659;45.554;11.812;2023-09-07T05:55:58;23.60;91.60
71672;DHT22;67659;45.554;11.812;2023-09-07T05:58:24;23.70;90.10
71672;DHT22;67659;45.554;11.812;2023-09-07T06:00:50;23.80;90.50
71672;DHT22;67659;45.554;11.812;2023-09-07T06:03:16;24.00;90.40
71672;DHT22;67659;45.554;11.812;2023-09-07T06:05:42;24.20;88.70
71672;DHT22;67659;45.554;11.812;2023-09-07T06:08:08;24.40;88.60
71672;DHT22;67659;45.554;11.812;2023-09-07T06:10:34;24.50;86.90
71672;DHT22;67659;45.554;11.812;2023-09-07T06:13:00;24.80;85.80
71672;DHT22;67659;45.554;11.812;2023-09-07T06:15:26;24.90;86.60
71672;DHT22;67659;45.554;11.812;2023-09-07T06:17:52;25.00;87.80
71672;DHT22;67659;45.554;11.812;2023-09-07T06:20:19;25.20;88.20
71672;DHT22;67659;45.554;11.812;2023-09-07T06:22:46;25.30;88.30
71672;DHT22;67659;45.554;11.812;2023-09-07T06:25:12;25.50;86.70
71672;DHT22;67659;45.554;11.812;2023-09-07T06:27:38;25.70;84.40
71672;DHT22;67659;45.554;11.812;2023-09-07T06:30:05;25.80;84.80
71672;DHT22;67659;45.554;11.812;2023-09-07T06:32:31;26.10;85.80
71672;DHT22;67659;45.554;11.812;2023-09-07T06:34:58;26.20;85.20
71672;DHT22;67659;45.554;11.812;2023-09-07T06:37:24;26.30;84.90
71672;DHT22;67659;45.554;11.812;2023-09-07T06:39:50;26.30;84.80
71672;DHT22;67659;45.554;11.812;2023-09-07T06:42:16;26.40;84.70
71672;DHT22;67659;45.554;11.812;2023-09-07T06:44:42;26.50;84.50
71672;DHT22;67659;45.554;11.812;2023-09-07T06:47:08;26.60;82.30
71672;DHT22;67659;45.554;11.812;2023-09-07T06:49:34;26.80;82.60
71672;DHT22;67659;45.554;11.812;2023-09-07T06:52:00;26.90;83.10
71672;DHT22;67659;45.554;11.812;2023-09-07T06:54:28;26.70;81.80
71672;DHT22;67659;45.554;11.812;2023-09-07T06:56:54;27.00;83.00
71672;DHT22;67659;45.554;11.812;2023-09-07T06:59:20;27.20;82.50
71672;DHT22;67659;45.554;11.812;2023-09-07T07:01:46;27.50;82.80
71672;DHT22;67659;45.554;11.812;2023-09-07T07:04:12;27.60;82.50
71672;DHT22;67659;45.554;11.812;2023-09-07T07:06:38;27.80;82.40
71672;DHT22;67659;45.554;11.812;2023-09-07T07:09:04;27.90;82.50
71672;DHT22;67659;45.554;11.812;2023-09-07T07:11:29;28.10;82.00
71672;DHT22;67659;45.554;11.812;2023-09-07T07:13:55;28.20;82.70
71672;DHT22;67659;45.554;11.812;2023-09-07T07:16:21;28.30;81.50
71672;DHT22;67659;45.554;11.812;2023-09-07T07:18:47;28.50;80.20
71672;DHT22;67659;45.554;11.812;2023-09-07T07:21:13;28.60;80.90
71672;DHT22;67659;45.554;11.812;2023-09-07T07:23:39;28.70;81.10
71672;DHT22;67659;45.554;11.812;2023-09-07T07:26:04;28.80;81.10
71672;DHT22;67659;45.554;11.812;2023-09-07T07:28:30;29.00;81.30
71672;DHT22;67659;45.554;11.812;2023-09-07T07:30:56;29.20;80.20
71672;DHT22;67659;45.554;11.812;2023-09-07T07:33:22;29.40;80.10
71672;DHT22;67659;45.554;11.812;2023-09-07T07:35:48;29.30;79.20
71672;DHT22;67659;45.554;11.812;2023-09-07T07:38:14;29.50;80.20
71672;DHT22;67659;45.554;11.812;2023-09-07T07:40:40;29.70;79.00
71672;DHT22;67659;45.554;11.812;2023-09-07T07:43:06;29.70;77.70
71672;DHT22;67659;45.554;11.812;2023-09-07T07:45:33;29.80;77.60
71672;DHT22;67659;45.554;11.812;2023-09-07T07:48:04;30.00;77.60
71672;DHT22;67659;45.554;11.812;2023-09-07T07:50:37;30.20;77.50
71672;DHT22;67659;45.554;11.812;2023-09-07T07:53:04;30.30;77.10
71672;DHT22;67659;45.554;11.812;2023-09-07T07:55:37;30.40;76.50
71672;DHT22;67659;45.554;11.812;2023-09-07T07:58:06;30.40;75.40
71672;DHT22;67659;45.554;11.812;2023-09-07T08:00:36;30.50;76.30
71672;DHT22;67659;45.554;11.812;2023-09-07T08:03:02;30.60;75.50
71672;DHT22;67659;45.554;11.812;2023-09-07T08:05:29;30.90;74.70
71672;DHT22;67659;45.554;11.812;2023-09-07T08:07:56;31.20;75.00
71672;DHT22;67659;45.554;11.812;2023-09-07T08:10:22;31.30;73.50
71672;DHT22;67659;45.554;11.812;2023-09-07T08:12:48;31.20;74.20
71672;DHT22;67659;45.554;11.812;2023-09-07T08:15:14;31.20;74.10
71672;DHT22;67659;45.554;11.812;2023-09-07T08:17:40;31.30;74.10
71672;DHT22;67659;45.554;11.812;2023-09-07T08:20:06;31.20;72.80
71672;DHT22;67659;45.554;11.812;2023-09-07T08:22:33;30.60;71.60
71672;DHT22;67659;45.554;11.812;2023-09-07T08:25:02;31.00;73.40
71672;DHT22;67659;45.554;11.812;2023-09-07T08:27:28;31.10;71.90
71672;DHT22;67659;45.554;11.812;2023-09-07T08:29:53;31.10;72.60
71672;DHT22;67659;45.554;11.812;2023-09-07T08:32:19;31.10;73.50
71672;DHT22;67659;45.554;11.812;2023-09-07T08:34:46;31.20;73.50
71672;DHT22;67659;45.554;11.812;2023-09-07T08:37:12;31.10;72.30
71672;DHT22;67659;45.554;11.812;2023-09-07T08:39:38;31.20;70.80
71672;DHT22;67659;45.554;11.812;2023-09-07T08:42:07;31.20;72.20
71672;DHT22;67659;45.554;11.812;2023-09-07T08:44:35;31.30;67.40
71672;DHT22;67659;45.554;11.812;2023-09-07T08:47:03;31.50;68.00
71672;DHT22;67659;45.554;11.812;2023-09-07T08:49:30;31.60;67.80
71672;DHT22;67659;45.554;11.812;2023-09-07T08:51:59;31.40;67.50
71672;DHT22;67659;45.554;11.812;2023-09-07T08:54:26;31.30;63.70
71672;DHT22;67659;45.554;11.812;2023-09-07T08:56:52;31.00;64.80
71672;DHT22;67659;45.554;11.812;2023-09-07T08:59:18;31.40;67.00
71672;DHT22;67659;45.554;11.812;2023-09-07T09:14:30;30.80;64.50
71672;DHT22;67659;45.554;11.812;2023-09-07T09:16:56;32.30;60.70
71672;DHT22;67659;45.554;11.812;2023-09-07T09:19:31;32.10;61.70
71672;DHT22;67659;45.554;11.812;2023-09-07T09:21:57;31.90;61.40
71672;DHT22;67659;45.554;11.812;2023-09-07T09:24:23;32.20;61.40
71672;DHT22;67659;45.554;11.812;2023-09-07T09:26:49;32.20;61.70
71672;DHT22;67659;45.554;11.812;2023-09-07T09:29:15;32.20;59.90
71672;DHT22;67659;45.554;11.812;2023-09-07T09:31:41;31.80;60.50
71672;DHT22;67659;45.554;11.812;2023-09-07T09:34:07;32.00;60.30
71672;DHT22;67659;45.554;11.812;2023-09-07T09:36:35;31.90;60.90
71672;DHT22;67659;45.554;11.812;2023-09-07T09:39:01;31.90;58.90
71672;DHT22;67659;45.554;11.812;2023-09-07T09:41:31;32.10;61.30
71672;DHT22;67659;45.554;11.812;2023-09-07T09:44:00;32.60;60.70
71672;DHT22;67659;45.554;11.812;2023-09-07T09:46:29;33.00;61.00
71672;DHT22;67659;45.554;11.812;2023-09-07T09:48:57;33.00;58.60
71672;DHT22;67659;45.554;11.812;2023-09-07T09:51:24;32.90;58.80
71672;DHT22;67659;45.554;11.812;2023-09-07T09:53:50;32.90;57.90
71672;DHT22;67659;45.554;11.812;2023-09-07T09:56:17;32.60;58.30
71672;DHT22;67659;45.554;11.812;2023-09-07T09:58:43;32.90;58.60
71672;DHT22;67659;45.554;11.812;2023-09-07T10:01:09;32.40;57.90
71672;DHT22;67659;45.554;11.812;2023-09-07T10:03:44;32.80;59.40
71672;DHT22;67659;45.554;11.812;2023-09-07T10:06:27;33.30;57.40
71672;DHT22;67659;45.554;11.812;2023-09-07T10:09:05;33.20;58.00
71672;DHT22;67659;45.554;11.812;2023-09-07T10:11:33;33.60;56.70
71672;DHT22;67659;45.554;11.812;2023-09-07T10:14:01;33.50;56.70
71672;DHT22;67659;45.554;11.812;2023-09-07T10:16:40;32.90;56.10
71672;DHT22;67659;45.554;11.812;2023-09-07T10:19:17;32.90;57.30
71672;DHT22;67659;45.554;11.812;2023-09-07T10:21:43;33.00;57.70
71672;DHT22;67659;45.554;11.812;2023-09-07T10:24:10;33.10;55.80
71672;DHT22;67659;45.554;11.812;2023-09-07T10:26:36;33.20;55.50
71672;DHT22;67659;45.554;11.812;2023-09-07T10:29:02;33.30;57.00
71672;DHT22;67659;45.554;11.812;2023-09-07T10:31:29;33.50;56.60
71672;DHT22;67659;45.554;11.812;2023-09-07T10:33:56;33.20;55.20
71672;DHT22;67659;45.554;11.812;2023-09-07T10:36:26;33.10;54.70
71672;DHT22;67659;45.554;11.812;2023-09-07T10:38:53;32.50;54.50
71672;DHT22;67659;45.554;11.812;2023-09-07T10:41:19;33.00;58.00
71672;DHT22;67659;45.554;11.812;2023-09-07T10:43:49;33.50;56.70
71672;DHT22;67659;45.554;11.812;2023-09-07T10:46:19;33.60;56.20
71672;DHT22;67659;45.554;11.812;2023-09-07T10:48:50;33.70;55.50
71672;DHT22;67659;45.554;11.812;2023-09-07T10:51:18;33.60;52.10
71672;DHT22;67659;45.554;11.812;2023-09-07T10:53:44;34.20;54.40
71672;DHT22;67659;45.554;11.812;2023-09-07T10:56:10;34.00;55.50
71672;DHT22;67659;45.554;11.812;2023-09-07T10:58:37;34.10;54.10
71672;DHT22;67659;45.554;11.812;2023-09-07T11:01:08;34.00;52.50
71672;DHT22;67659;45.554;11.812;2023-09-07T11:03:37;33.70;54.20
71672;DHT22;67659;45.554;11.812;2023-09-07T11:06:08;34.00;54.20
71672;DHT22;67659;45.554;11.812;2023-09-07T11:08:34;34.10;55.40
71672;DHT22;67659;45.554;11.812;2023-09-07T11:11:02;34.60;51.30
71672;DHT22;67659;45.554;11.812;2023-09-07T11:13:28;34.70;52.80
71672;DHT22;67659;45.554;11.812;2023-09-07T11:15:58;34.70;50.50
71672;DHT22;67659;45.554;11.812;2023-09-07T11:18:25;34.30;54.10
71672;DHT22;67659;45.554;11.812;2023-09-07T11:20:52;34.50;52.40
71672;DHT22;67659;45.554;11.812;2023-09-07T11:23:19;34.90;51.50
71672;DHT22;67659;45.554;11.812;2023-09-07T11:25:49;34.80;50.40
71672;DHT22;67659;45.554;11.812;2023-09-07T11:28:17;34.90;53.00
71672;DHT22;67659;45.554;11.812;2023-09-07T11:30:56;35.10;51.60
71672;DHT22;67659;45.554;11.812;2023-09-07T11:33:22;34.60;49.10
71672;DHT22;67659;45.554;11.812;2023-09-07T11:35:48;33.90;49.80
71672;DHT22;67659;45.554;11.812;2023-09-07T11:38:15;33.90;53.60
71672;DHT22;67659;45.554;11.812;2023-09-07T11:40:42;34.30;51.70
71672;DHT22;67659;45.554;11.812;2023-09-07T11:43:13;34.60;50.50
71672;DHT22;67659;45.554;11.812;2023-09-07T11:45:40;34.30;51.90
71672;DHT22;67659;45.554;11.812;2023-09-07T11:48:07;34.80;50.80
71672;DHT22;67659;45.554;11.812;2023-09-07T11:50:35;34.90;48.90
71672;DHT22;67659;45.554;11.812;2023-09-07T11:53:01;34.90;50.00
71672;DHT22;67659;45.554;11.812;2023-09-07T11:55:27;34.40;50.80
71672;DHT22;67659;45.554;11.812;2023-09-07T11:57:54;34.30;50.10
71672;DHT22;67659;45.554;11.812;2023-09-07T12:00:20;34.50;52.80
71672;DHT22;67659;45.554;11.812;2023-09-07T12:02:48;34.90;50.70
71672;DHT22;67659;45.554;11.812;2023-09-07T12:05:14;34.50;50.20
71672;DHT22;67659;45.554;11.812;2023-09-07T12:07:41;33.60;49.00
71672;DHT22;67659;45.554;11.812;2023-09-07T12:10:11;33.80;51.20
71672;DHT22;67659;45.554;11.812;2023-09-07T12:12:38;33.90;49.70
71672;DHT22;67659;45.554;11.812;2023-09-07T12:15:04;33.60;50.50
71672;DHT22;67659;45.554;11.812;2023-09-07T12:17:33;33.70;50.60
71672;DHT22;67659;45.554;11.812;2023-09-07T12:20:00;33.60;49.80
71672;DHT22;67659;45.554;11.812;2023-09-07T12:22:26;33.70;49.80
71672;DHT22;67659;45.554;11.812;2023-09-07T12:24:52;33.90;51.10
71672;DHT22;67659;45.554;11.812;2023-09-07T12:27:19;34.40;50.30
71672;DHT22;67659;45.554;11.812;2023-09-07T12:29:45;34.90;49.40
71672;DHT22;67659;45.554;11.812;2023-09-07T12:32:11;35.50;48.20
71672;DHT22;67659;45.554;11.812;2023-09-07T12:34:37;35.00;46.80
71672;DHT22;67659;45.554;11.812;2023-09-07T12:37:04;34.60;48.40
71672;DHT22;67659;45.554;11.812;2023-09-07T12:39:31;34.60;49.00
71672;DHT22;67659;45.554;11.812;2023-09-07T12:41:57;34.60;47.40
71672;DHT22;67659;45.554;11.812;2023-09-07T12:44:23;34.30;49.40
71672;DHT22;67659;45.554;11.812;2023-09-07T12:46:49;33.90;49.90
71672;DHT22;67659;45.554;11.812;2023-09-07T12:49:15;34.00;51.60
71672;DHT22;67659;45.554;11.812;2023-09-07T12:51:41;34.00;51.40
71672;DHT22;67659;45.554;11.812;2023-09-07T12:54:08;34.00;50.50
71672;DHT22;67659;45.554;11.812;2023-09-07T12:56:34;34.10;52.60
71672;DHT22;67659;45.554;11.812;2023-09-07T12:59:00;34.40;52.50
71672;DHT22;67659;45.554;11.812;2023-09-07T13:01:29;34.10;51.30
71672;DHT22;67659;45.554;11.812;2023-09-07T13:03:56;33.80;51.70
71672;DHT22;67659;45.554;11.812;2023-09-07T13:06:22;34.10;52.00
71672;DHT22;67659;45.554;11.812;2023-09-07T13:08:48;34.40;51.70
71672;DHT22;67659;45.554;11.812;2023-09-07T13:11:14;34.20;49.30
71672;DHT22;67659;45.554;11.812;2023-09-07T13:13:39;33.70;49.20
71672;DHT22;67659;45.554;11.812;2023-09-07T13:16:05;33.40;49.90
71672;DHT22;67659;45.554;11.812;2023-09-07T13:18:31;33.30;50.50
71672;DHT22;67659;45.554;11.812;2023-09-07T13:20:57;33.40;49.40
71672;DHT22;67659;45.554;11.812;2023-09-07T13:23:29;33.30;50.70
71672;DHT22;67659;45.554;11.812;2023-09-07T13:25:58;33.40;52.70
71672;DHT22;67659;45.554;11.812;2023-09-07T13:28:26;33.30;49.70
71672;DHT22;67659;45.554;11.812;2023-09-07T13:30:52;33.40;50.20
71672;DHT22;67659;45.554;11.812;2023-09-07T13:33:18;33.70;51.70
71672;DHT22;67659;45.554;11.812;2023-09-07T13:35:44;33.80;50.00
71672;DHT22;67659;45.554;11.812;2023-09-07T13:38:11;33.80;52.10
71672;DHT22;67659;45.554;11.812;2023-09-07T13:40:36;34.00;53.40
71672;DHT22;67659;45.554;11.812;2023-09-07T13:43:02;34.30;52.00
71672;DHT22;67659;45.554;11.812;2023-09-07T13:45:28;33.80;48.40
71672;DHT22;67659;45.554;11.812;2023-09-07T13:47:55;33.50;49.20
71672;DHT22;67659;45.554;11.812;2023-09-07T13:50:21;33.50;50.70
71672;DHT22;67659;45.554;11.812;2023-09-07T13:52:48;33.80;50.60
71672;DHT22;67659;45.554;11.812;2023-09-07T13:55:14;33.70;47.40
71672;DHT22;67659;45.554;11.812;2023-09-07T13:57:40;33.30;50.00
71672;DHT22;67659;45.554;11.812;2023-09-07T14:00:07;33.10;50.00
71672;DHT22;67659;45.554;11.812;2023-09-07T14:02:33;33.00;50.90
71672;DHT22;67659;45.554;11.812;2023-09-07T14:04:59;33.30;49.80
71672;DHT22;67659;45.554;11.812;2023-09-07T14:07:25;33.20;50.40
71672;DHT22;67659;45.554;11.812;2023-09-07T14:09:56;33.50;49.80
71672;DHT22;67659;45.554;11.812;2023-09-07T14:12:22;33.50;50.20
71672;DHT22;67659;45.554;11.812;2023-09-07T14:14:49;33.40;49.40
71672;DHT22;67659;45.554;11.812;2023-09-07T14:17:15;33.00;48.50
71672;DHT22;67659;45.554;11.812;2023-09-07T14:19:41;32.90;49.50
71672;DHT22;67659;45.554;11.812;2023-09-07T14:22:07;33.00;48.60
71672;DHT22;67659;45.554;11.812;2023-09-07T14:24:33;33.00;50.50
71672;DHT22;67659;45.554;11.812;2023-09-07T14:26:59;32.80;50.20
71672;DHT22;67659;45.554;11.812;2023-09-07T14:29:24;33.00;50.80
71672;DHT22;67659;45.554;11.812;2023-09-07T14:31:52;33.10;50.20
71672;DHT22;67659;45.554;11.812;2023-09-07T14:34:18;33.10;48.00
71672;DHT22;67659;45.554;11.812;2023-09-07T14:36:44;33.00;48.40
71672;DHT22;67659;45.554;11.812;2023-09-07T14:39:09;32.70;48.00
71672;DHT22;67659;45.554;11.812;2023-09-07T14:41:36;32.70;48.60
71672;DHT22;67659;45.554;11.812;2023-09-07T14:44:02;32.60;48.30
71672;DHT22;67659;45.554;11.812;2023-09-07T14:46:28;32.60;49.60
71672;DHT22;67659;45.554;11.812;2023-09-07T14:48:54;32.80;49.70
71672;DHT22;67659;45.554;11.812;2023-09-07T14:51:19;32.80;48.50
71672;DHT22;67659;45.554;11.812;2023-09-07T14:53:45;32.70;49.90
71672;DHT22;67659;45.554;11.812;2023-09-07T14:56:12;32.60;49.50
71672;DHT22;67659;45.554;11.812;2023-09-07T14:58:38;32.40;50.00
71672;DHT22;67659;45.554;11.812;2023-09-07T15:01:04;32.30;49.40
71672;DHT22;67659;45.554;11.812;2023-09-07T15:03:30;32.20;50.00
71672;DHT22;67659;45.554;11.812;2023-09-07T15:05:56;32.20;49.10
71672;DHT22;67659;45.554;11.812;2023-09-07T15:08:23;32.20;49.80
71672;DHT22;67659;45.554;11.812;2023-09-07T15:10:49;32.10;49.60
71672;DHT22;67659;45.554;11.812;2023-09-07T15:13:15;31.70;49.40
71672;DHT22;67659;45.554;11.812;2023-09-07T15:15:41;31.50;50.30
71672;DHT22;67659;45.554;11.812;2023-09-07T15:18:07;31.60;52.60
71672;DHT22;67659;45.554;11.812;2023-09-07T15:20:34;31.60;53.40
71672;DHT22;67659;45.554;11.812;2023-09-07T15:23:00;31.60;52.40
71672;DHT22;67659;45.554;11.812;2023-09-07T15:25:26;31.70;52.90